Accueil
METAR-TAF:

METAR-TAF

Aéroports :

Anvers, Belgique

Aéroport d'Anvers

latitude: 51-12N, longitude: 004-28E, altitude: 12 m

Observation

Le bulletin a été fait il y a 22 minutes, à 03:20 UTC
Vent 8 kt de ouest
Température 13°C
Humidité 67%
Pression 1013 hPa
Visibilité 10 km ou plus
pas de nuages en-dessous de 1500 mètres et pas de cumulonimbus.

METAR: EBAW 230320Z AUTO 27008KT CAVOK 13/07 Q1013

Heure: 05:42 (03:42 UTC)

Prévision

Le bulletin a été fait il y a 1 heure et 22 minutes, à 02:20 UTC
Prévision valable du 23 à 03 UTC au 23 à 12 UTC
Vent 7 kt de ouest
Visibilité 10 km ou plus
pas de nuages en-dessous de 1500 mètres et pas de cumulonimbus.

TAF: EBAW 230220Z 2303/2312 27007KT CAVOK

Observations et prévisions météorologiques de plus de 4000 aéroports (messages METAR et TAF).

Les stations disponibles sont représentées par des disques jaunes et rouges sur la carte.

Passer la souris dessus pour voir le nom de la station.

Cliquer dessus pour voir les observations et prévisions météorologiques.

Pour changer de carte: cliquez sur les boutons verts avec une croix noire pour zoomer, sur le bouton vert avec un tiret pour effectuer un zoom arrière, ou sur les flèches vertes pour les cartes adjacentes.


METAR-TAF: